PH-0037 weather

Public forecast

Using degrees Celsius for public forecast. Weather courtesy of forecast.io.

Closest aviation weather report (METAR) to Malaysian Plaza Heliport

Closest report is Ninoy Aquino International Airport, 5.2 nm (9.7 km) SSW. Retrieved 2020/08/12 12:00 UTC (34 minutes ago):

RPLL 121200Z AUTO 11002KT 9999 OVC160/// 29/24 Q1012

Closest aviation forecast (TAF) to Malaysian Plaza Heliport

Closest forecast is Ninoy Aquino International Airport, 5.2 nm (9.7 km) SSW. Retrieved 2020/08/12 12:21 UTC (13 minutes ago):

TAF RPLL 121100Z 1212/1318 09007KT 9999 FEW022 SCT100 BKN280 TX32/1306Z TN25/1221Z TEMPO 1212/1218 10010KT 9000 -SHRA FEW020CB SCT022 BKN100 TEMPO 1218/1224 FEW022 BKN100